Tiempo atmosférico en la estación meteorológica de Sos del Rey Católico, Zaragoza (630 m.)



Fecha
DESCASC
Temp. máxima en grados centígrados (hora)
DESCASC
Temp. mínima en grados centígrados (hora)
DESCASC
Temp. media en grados centígrados
DESCASC
Racha de viento máxima en m/sg (hora)
DESCASC
Velocidad máxima media en intervalos de 10 minutos(hora)
DESCASC
Precipitaciones diarias en mm
DESCASC
Precipitaciones de 00:00 a 06:00 en mm
DESCASC
Precipitaciones de 06:00 a 12:00 en mm
DESCASC
Precipitaciones de 12:00 a 18:00 en mm
DESCASC
Precipitaciones de 18:00 a 24:00 en mm
DESCASC
22-11-2020 11.3 (16:30) -2 (07:30) 4.7 3.33 (17:50) 2.78 (17:40) 0 0 0 0 0
21-11-2020 12.3 (16:30) -0.4 (07:40) 6 7.78 (00:40) 5 (00:30) 0 0 0 0 0
20-11-2020 11.2 (13:40) 5.2 (23:59) 8.2 15.28 (07:00) 10.83 (08:20) 0 0 0 0 0
19-11-2020 16.1 (13:20) 5.2 (00:00) 10.7 13.89 (15:40) 10 (20:40) 0 0 0 0 0
18-11-2020 16.9 (15:40) 3.5 (00:00) 10.2 3.33 (18:00) 2.5 (18:00) 0 0 0 0 0
17-11-2020 14.7 (15:40) 2.8 (00:00) 8.7 2.78 (01:40) 1.94 (01:40) 0 0 0 0 0
16-11-2020 12.8 (13:20) 6.3 (00:00) 9.6 12.22 (14:50) 8.33 (14:50) 0.6 0.6 0 0 0
15-11-2020 17.2 (13:20) 9.5 (00:00) 13.4 6.39 (23:40) 3.89 (12:00) 1.4 0 0 0 1.4
14-11-2020 15.4 (13:00) 2.8 (00:00) 9.1 6.11 (15:30) 4.44 (15:30) 0 0 0 0 0
13-11-2020 13.3 (14:50) 4.9 (00:00) 9.1 3.33 (12:50) 2.22 (12:50) 0 0 0 0 0
12-11-2020 15.7 (14:50) 5.2 (00:00) 10.4 4.72 (15:30) 3.89 (15:40) 0 0 0 0 0
11-11-2020 16.9 (14:10) 4.2 (00:00) 10.5 6.11 (15:40) 3.89 (14:30) 0 0 0 0 0
10-11-2020 16.2 (15:40) 5.5 (00:00) 10.9 4.17 (13:10) 2.78 (13:20) 0 0 0 0 0
09-11-2020 13.9 (15:30) 6.7 (00:00) 10.3 5.28 (04:00) 3.61 (04:10) 0.2 0 0 0.2 0
08-11-2020 15.8 (13:50) 7.8 (00:00) 11.8 8.89 (13:10) 6.11 (13:00) 0 0 0 0 0
07-11-2020 16.2 (06:30) 11.2 (00:00) 13.7 18.89 (00:10) 10.83 (06:50) 34.8 0 33.8 0.8 0.2
06-11-2020 17.6 (11:40) 12.7 (00:00) 15.2 17.22 (22:20) 12.22 (22:20) 0 0 0 0 0
05-11-2020 15.3 (14:30) 5.9 (00:00) 10.6 9.44 (23:50) 6.39 (22:30) 0.2 0 0 0 0.2
04-11-2020 8.7 (12:30) 5.8 (00:00) 7.3 8.61 (00:40) 6.11 (00:40) 0 0 0 0 0
03-11-2020 12.9 (00:10) 7 (00:00) 9.9 10.56 (18:30) 7.5 (18:30) 2.2 0 2.2 0 0
02-11-2020 21.8 (14:50) 10.7 (00:00) 16.2 6.67 (21:10) 4.44 (21:10) 0 0 0 0 0
01-11-2020 20.9 (15:00) 7 (00:00) 13.9 3.33 (18:40) 2.5 (18:40) 0 0 0 0 0
31-10-2020 20.2 (15:30) 4.9 (00:00) 12.6 4.72 (15:00) 3.06 (14:40) 0 0 0 0 0
30-10-2020 18.5 (15:20) 4.8 (00:00) 11.7 3.33 (19:30) 2.5 (19:30) 0 0 0 0 0
29-10-2020 17.7 (15:50) 5.2 (00:00) 11.5 3.61 (18:20) 3.06 (18:20) 0 0 0 0 0
28-10-2020 16.6 (16:00) 6.5 (00:00) 11.6 2.78 (15:00) 2.22 (03:10) 0 0 0 0 0

Gráficas

Temp. máximas Temp. mínimas Temp. medias Precipitaciones Rachas de viento máximas Velocidades máximas media en intervalos de 10 minutos

Datos horarios

Fecha y hora oficial Temperatura (ºC) Velocidad del viento (km/h) Dirección del viento Racha (km/h) Dirección de racha Precipitación (mm) Presión (hPa) Tendencia (hPa) Humedad (%)
2020-11-26 23:00:00 11.8 11 Sudeste 19 Sudeste 0 -- -- 72
2020-11-26 22:00:00 10.8 10 Sudeste 18 Este 0 -- -- 75
2020-11-26 21:00:00 8.8 5 Sur 9 Sur 0 -- -- 85
2020-11-26 20:00:00 10.7 9 Este 20 Nordeste 0 -- -- 77
2020-11-26 19:00:00 11 9 Este 16 Este 0 -- -- 77
2020-11-26 18:00:00 11.2 6 Este 13 Nordeste 0 -- -- 77
2020-11-26 17:00:00 11.6 4 Este 25 Este 0 -- -- 77
2020-11-26 16:00:00 12.3 16 Sudeste 25 Sudeste 0 -- -- 76
2020-11-26 15:00:00 12.8 11 Sudeste 28 Este 0 -- -- 69
2020-11-26 14:00:00 13.1 16 Este 36 Este 0 -- -- 68
2020-11-26 13:00:00 13.6 18 Sudeste 34 Este 0 -- -- 66
2020-11-26 12:00:00 12.9 19 Sudeste 28 Sudeste 0 -- -- 68
2020-11-26 11:00:00 12.2 20 Este 31 Sudeste 0 -- -- 70
2020-11-26 10:00:00 11.6 8 Sudeste 28 Sudeste 0 -- -- 72
2020-11-26 09:00:00 9.7 4 Este 13 Este 0 -- -- 77
2020-11-26 08:00:00 9.1 6 Este 13 Este 0 -- -- 78
2020-11-26 07:00:00 8.8 3 Este 13 Sudeste 0 -- -- 80
2020-11-26 06:00:00 9.2 5 Sudeste 27 Sudeste 0 -- -- 78
2020-11-26 05:00:00 9.8 16 Sudeste 28 Sudeste 0 -- -- 76
2020-11-26 04:00:00 9.5 15 Sudeste 32 Sudeste 0 -- -- 78
2020-11-26 03:00:00 9.8 20 Sudeste 40 Este 0 -- -- 77
2020-11-26 02:00:00 10.1 26 Sudeste 36 Este 0 -- -- 76
2020-11-26 01:00:00 10.2 20 Sudeste 44 Este 0 -- -- 74
2020-11-26 00:00:00 10.1 21 Sudeste 38 Sudeste 0 -- -- 73
2020-11-25 23:00:00 10.5 16 Sudeste 27 Sudeste 0 -- -- 67
2020-11-25 22:00:00 10.9 18 Sudeste 37 Sudeste 0 -- -- 70
2020-11-25 21:00:00 10.7 27 Sudeste 41 Sudeste 0 -- -- 67
2020-11-25 20:00:00 10.9 19 Sudeste 29 Sudeste 0 -- -- 70
2020-11-25 19:00:00 11.3 14 Sudeste 30 Sudeste 0 -- -- 61
2020-11-25 18:00:00 11 14 Sudeste 27 Sudeste 0 -- -- 61
2020-11-25 17:00:00 11.1 15 Sudeste 33 Este 0 -- -- 61
2020-11-25 16:00:00 11.7 23 Sudeste 36 Sudeste 0 -- -- 62
2020-11-25 15:00:00 11.9 15 Sudeste 32 Este 0 -- -- 59
2020-11-25 14:00:00 13.2 17 Sudeste 33 Este 0 -- -- 53
2020-11-25 13:00:00 12.9 19 Sudeste -- -- -- -- -- 55
2020-11-25 12:00:00 11.8 22 Este 35 Este 0 -- -- 59
2020-11-25 11:00:00 11 15 Este 28 Sudeste 0 -- -- 69
2020-11-25 10:00:00 9.4 13 Sudeste 27 Sudeste 0 -- -- 78
2020-11-25 09:00:00 7.6 13 Sudeste 19 Sudeste 0 -- -- 84
2020-11-25 08:00:00 6.6 12 Sudeste 19 Sudeste 0 -- -- 86
2020-11-25 07:00:00 5.2 3 Nordeste 9 Sur 0 -- -- 91
2020-11-25 06:00:00 4.1 2 Sudeste 4 Sudeste 0 -- -- 94
2020-11-25 05:00:00 3.4 0 Calma 4 Sur 0 -- -- 96
2020-11-25 04:00:00 3.7 0 Calma 5 Sudoeste 0 -- -- 93
2020-11-25 03:00:00 4.2 2 Sur 6 Oeste 0 -- -- 94
2020-11-25 02:00:00 2.9 3 Sur 5 Sur 0 -- -- 93
2020-11-25 01:00:00 3 2 Sudoeste 7 Sur 0 -- -- 91
2020-11-25 00:00:00 3 0 Calma 5 Sur 0 -- -- 90
2020-11-24 23:00:00 2.9 2 Sur 6 Oeste 0 -- -- 90
2020-11-24 22:00:00 3.1 3 Sur 9 Sur 0 -- -- 91
2020-11-24 21:00:00 3.5 5 Sur 7 Sur 0 -- -- 89
2020-11-24 20:00:00 4.9 0 Calma 5 Sur 0 -- -- 83
2020-11-24 19:00:00 5.2 2 Sur 6 Sudoeste 0 -- -- 79
2020-11-24 18:00:00 6.5 0 Calma 5 Sur 0 -- -- 76
2020-11-24 17:00:00 8.5 2 Sur 3 Sur 0 -- -- 75
2020-11-24 16:00:00 8.9 3 Nordeste 5 Nordeste 0 -- -- 75
2020-11-24 15:00:00 9.1 3 Norte 6 Norte 0 -- -- 71
2020-11-24 14:00:00 9.2 4 Norte 8 Nordeste 0 -- -- 70
2020-11-24 13:00:00 8.3 4 Norte 6 Nordeste 0 -- -- 74
2020-11-24 12:00:00 6.5 3 Norte 6 Nordeste 0 -- -- 78
2020-11-24 11:00:00 4.9 3 Norte 4 Norte 0 -- -- 84
2020-11-24 10:00:00 4.6 2 Norte 3 Sur 0 -- -- 88
2020-11-24 09:00:00 0.4 2 Sur 5 Sur 0 -- -- 99
2020-11-24 08:00:00 -0.2 0 Calma 2 Sur 0 -- -- 98
2020-11-24 07:00:00 0.2 0 Calma 4 Sur 0 -- -- 97
2020-11-24 06:00:00 0.9 2 Oeste 3 Noroeste 0 -- -- 97
2020-11-24 05:00:00 0.3 2 Sudoeste 6 Sur 0 -- -- 97
2020-11-24 04:00:00 0.5 3 Sur 4 Sur 0 -- -- 96
2020-11-24 03:00:00 0.9 0 Calma 9 Sudeste 0 -- -- 96
2020-11-24 02:00:00 1.3 0 Calma 3 Sur 0 -- -- 95
2020-11-24 01:00:00 1.7 2 Sur 3 Sur 0 -- -- 94
2020-11-24 00:00:00 2 0 Calma 8 Sur 0 -- -- 93
2020-11-23 23:00:00 2.4 3 Sur 5 Sur 0 -- -- 92
2020-11-23 22:00:00 2.5 0 Calma 4 Sur 0 -- -- 92
2020-11-23 21:00:00 3.4 2 Sur 8 Sur 0 -- -- 89
2020-11-23 20:00:00 4.8 8 Sur 12 Sur 0 -- -- 86
2020-11-23 19:00:00 4.8 4 Sur 12 Sudoeste 0 -- -- 84
2020-11-23 18:00:00 6.3 10 Sur 12 Sur 0 -- -- 79
2020-11-23 17:00:00 8.2 5 Sur 6 Sur 0 -- -- 73
2020-11-23 16:00:00 9.9 2 Nordeste 5 Norte 0 -- -- 63
2020-11-23 15:00:00 10.2 3 Norte 6 Norte 0 -- -- 61
2020-11-23 14:00:00 9.3 4 Norte 8 Norte 0 -- -- 64
2020-11-23 13:00:00 8.5 5 Norte 6 Norte 0 -- -- 69
2020-11-23 12:00:00 6.4 4 Norte 6 Norte 0 -- -- 76
2020-11-23 11:00:00 4.3 3 Norte 4 Norte 0 -- -- 82
2020-11-23 10:00:00 2.3 0 Calma 3 Nordeste 0 -- -- 88
2020-11-23 09:00:00 0.1 0 Calma 8 Sur 0 -- -- 99
2020-11-23 08:00:00 -1 2 Sur 6 Sur 0 -- -- 97
2020-11-23 07:00:00 -0.2 2 Oeste 6 Sur 0 -- -- 98
2020-11-23 06:00:00 -0.7 0 Calma 6 Sur 0 -- -- 96
2020-11-23 05:00:00 -0.4 3 Sur 4 Sur 0 -- -- 95
2020-11-23 04:00:00 -0.4 0 Calma 5 Sur 0 -- -- 95
2020-11-23 03:00:00 0.4 3 Sur 5 Sudoeste 0 -- -- 93
2020-11-23 02:00:00 0.8 3 Sudoeste 5 Sur 0 -- -- 92
2020-11-23 01:00:00 0.8 5 Sur 6 Sur 0 -- -- 93
2020-11-23 00:00:00 1.2 2 Sur 6 Sudoeste 0 -- -- 91
2020-11-22 23:00:00 1.9 4 Sur 7 Sur 0 -- -- 89
2020-11-22 22:00:00 2.2 4 Sur 10 Sur 0 -- -- 87
2020-11-22 21:00:00 2.7 6 Sur 9 Sur 0 -- -- 86
2020-11-22 20:00:00 3.1 5 Sur 9 Sur 0 -- -- 83
2020-11-22 19:00:00 3.9 7 Sur 12 Sur 0 -- -- 80
2020-11-22 18:00:00 5.7 9 Sur 12 Sur 0 -- -- 75
2020-11-22 17:00:00 8.5 6 Sur 8 Sur 0 -- -- 67
2020-11-22 16:00:00 10.6 2 Nordeste 6 Norte 0 -- -- 54
2020-11-22 15:00:00 10.4 4 Norte 6 Norte 0 -- -- 52
2020-11-22 14:00:00 9.5 4 Nordeste 7 Norte 0 -- -- 57
2020-11-22 13:00:00 8.4 3 Norte 6 Norte 0 -- -- 63
2020-11-22 12:00:00 6.5 3 Norte 6 Norte 0 -- -- 68
2020-11-22 11:00:00 5.6 2 Norte 4 Noroeste 0 -- -- 65
2020-11-22 10:00:00 3.5 0 Calma 4 Sudeste 0 -- -- 77
2020-11-22 09:00:00 -0.4 2 Sudeste 3 Sudeste 0 -- -- 93
2020-11-22 08:00:00 -1.6 0 Calma 6 Sur 0 -- -- 92
2020-11-22 07:00:00 -1.2 3 Sur 5 Sur 0 -- -- 93
2020-11-22 06:00:00 -1 2 Sur 5 Sur 0 -- -- 91
2020-11-22 05:00:00 -0.6 2 Sur 4 Sudoeste 0 -- -- 90
2020-11-22 04:00:00 -0.3 2 Sur 6 Sur 0 -- -- 90
2020-11-22 03:00:00 -0.1 3 Sur 5 Sur 0 -- -- 90
2020-11-22 02:00:00 -0.1 3 Sur 6 Sur 0 -- -- 89
2020-11-22 01:00:00 0.8 2 Sudoeste 8 Sur 0 -- -- 88
2020-11-22 00:00:00 0.8 5 Sur 6 Sur 0 -- -- 88
2020-11-21 23:00:00 1.6 3 Sur 6 Sur 0 -- -- 85
2020-11-21 22:00:00 2.1 4 Sur 9 Sur 0 -- -- 83
2020-11-21 21:00:00 2.6 3 Sur 6 Sudoeste 0 -- -- 83
2020-11-21 20:00:00 4.5 5 Sudoeste 13 Sur 0 -- -- 74
2020-11-21 19:00:00 6.1 10 Sur 16 Sur 0 -- -- 66
2020-11-21 18:00:00 6.9 8 Sur 13 Sur 0 -- -- 63
2020-11-21 17:00:00 9.2 4 Sur 8 Sur 0 -- -- 58
2020-11-21 16:00:00 11.2 2 Nordeste 10 Norte 0 -- -- 42
2020-11-21 15:00:00 11.6 8 Norte 12 Norte 0 -- -- 40
2020-11-21 14:00:00 10.9 5 Norte 8 Norte 0 -- -- 38
2020-11-21 13:00:00 10.2 4 Norte 8 Nordeste 0 -- -- 46
2020-11-21 12:00:00 7.7 4 Norte 6 Norte 0 -- -- 55
2020-11-21 11:00:00 6 3 Norte 7 Noroeste 0 -- -- 60
2020-11-21 10:00:00 6 0 Calma 4 Sur 0 -- -- 58
2020-11-21 09:00:00 0.9 2 Sur 7 Sudoeste 0 -- -- 73
2020-11-21 08:00:00 -0.2 5 Sur 9 Sur 0 -- -- 74
2020-11-21 07:00:00 -0.1 4 Sur 8 Sur 0 -- -- 75
2020-11-21 06:00:00 0.1 4 Sur 8 Sur 0 -- -- 75
2020-11-21 05:00:00 1.4 0 Calma 7 Oeste 0 -- -- 68
2020-11-21 04:00:00 3.5 3 Oeste 9 Oeste 0 -- -- 58
2020-11-21 03:00:00 3.4 5 Noroeste 11 Oeste 0 -- -- 57
2020-11-21 02:00:00 4.1 3 Sur 18 Noroeste 0 -- -- 56
2020-11-21 01:00:00 5.2 12 Noroeste 28 Noroeste 0 -- -- 52
2020-11-21 00:00:00 5.4 13 Noroeste 26 Noroeste 0 -- -- 59
2020-11-20 23:00:00 6 21 Noroeste 37 Noroeste 0 -- -- 52
2020-11-20 22:00:00 6.3 23 Noroeste 33 Noroeste 0 -- -- 51
2020-11-20 21:00:00 7 20 Noroeste 31 Noroeste 0 -- -- 46
2020-11-20 20:00:00 6.7 26 Noroeste 37 Noroeste 0 -- -- 52
2020-11-20 19:00:00 6.8 18 Noroeste 34 Noroeste 0 -- -- 54
2020-11-20 18:00:00 7.1 25 Noroeste 42 Noroeste 0 -- -- 56
2020-11-20 17:00:00 8.4 28 Norte 44 Noroeste 0 -- -- 47
2020-11-20 16:00:00 9.9 30 Noroeste 37 Oeste 0 -- -- 41
2020-11-20 15:00:00 10.9 8 Noroeste 38 Noroeste 0 -- -- 39
2020-11-20 14:00:00 11.1 15 Noroeste 30 Norte 0 -- -- 40
2020-11-20 13:00:00 10.9 13 Noroeste 27 Oeste 0 -- -- 41
2020-11-20 12:00:00 10.2 10 Noroeste 26 Norte 0 -- -- 47
2020-11-20 11:00:00 9.5 10 Norte 24 Norte 0 -- -- 54
2020-11-20 10:00:00 8.1 13 Noroeste 32 Noroeste 0 -- -- 59
2020-11-20 09:00:00 7.2 22 Noroeste 54 Noroeste 0 -- -- 68
2020-11-20 08:00:00 6.5 32 Noroeste 42 Noroeste 0 -- -- 70
2020-11-20 07:00:00 6.9 31 Noroeste 55 Norte 0 -- -- 68
2020-11-20 06:00:00 6.7 10 Noroeste 40 Noroeste 0 -- -- 63
2020-11-20 05:00:00 6.4 22 Norte 40 Noroeste 0 -- -- 65
2020-11-20 04:00:00 6.2 6 Nordeste 26 Noroeste 0 -- -- 70
2020-11-20 03:00:00 6 9 Oeste 20 Oeste 0 -- -- 71
2020-11-20 02:00:00 6.4 10 Oeste 18 Sur 0 -- -- 67
2020-11-20 01:00:00 6.5 7 Oeste 23 Noroeste 0 -- -- 69
2020-11-20 00:00:00 6.9 6 Noroeste 28 Noroeste 0 -- -- 68
2020-11-19 23:00:00 7.5 14 Noroeste 27 Noroeste 0 -- -- 67
2020-11-19 22:00:00 7.8 18 Noroeste 36 Noroeste 0 -- -- 69
2020-11-19 21:00:00 7.8 28 Noroeste 43 Noroeste 0 -- -- 77
2020-11-19 20:00:00 8.2 28 Noroeste 43 Noroeste 0 -- -- 74
2020-11-19 19:00:00 8.9 29 Noroeste 39 Noroeste 0 -- -- 75
2020-11-19 18:00:00 9.6 28 Noroeste 42 Noroeste 0 -- -- 77
2020-11-19 17:00:00 11.1 32 Noroeste 46 Noroeste 0 -- -- 74
2020-11-19 16:00:00 13.4 28 Noroeste 50 Noroeste 0 -- -- 68
2020-11-19 15:00:00 14.5 25 Noroeste 41 Noroeste 0 -- -- 67
2020-11-19 14:00:00 15.5 22 Noroeste 40 Norte 0 -- -- 67
2020-11-19 13:00:00 15.7 20 Noroeste 30 Noroeste 0 -- -- 71
2020-11-19 12:00:00 15 14 Noroeste 27 Noroeste 0 -- -- 77
2020-11-19 11:00:00 13.8 9 Noroeste 18 Noroeste 0 -- -- 82
2020-11-19 10:00:00 10.9 2 Nordeste 11 Norte 0 -- -- 92
2020-11-19 09:00:00 9.2 5 Norte 8 Norte 0 -- -- 96
2020-11-19 08:00:00 8.4 5 Oeste 7 Oeste 0 -- -- 100
2020-11-19 07:00:00 5.7 2 Oeste 10 Noroeste 0 -- -- 99
2020-11-19 06:00:00 6.2 5 Noroeste 10 Noroeste 0 -- -- 98
2020-11-19 05:00:00 5.4 2 Sur 4 Sudoeste 0 -- -- 97
2020-11-19 04:00:00 6.5 2 Noroeste 6 Sur 0 -- -- 98
2020-11-19 03:00:00 6.6 4 Sur 10 Noroeste 0 -- -- 96
2020-11-19 02:00:00 6.9 5 Sur 6 Sur 0 -- -- 97
2020-11-19 01:00:00 6.5 3 Sudoeste 6 Sudoeste 0 -- -- 96
2020-11-19 00:00:00 7 2 Sur 8 Sur 0 -- -- 95
2020-11-18 23:00:00 7.8 3 Sur 8 Sur 0 -- -- 94
2020-11-18 22:00:00 7.8 4 Sur 9 Sur 0 -- -- 94
2020-11-18 21:00:00 8.4 3 Sur 8 Sudoeste 0 -- -- 91
2020-11-18 20:00:00 9.2 6 Sur 10 Sudoeste 0 -- -- 90
2020-11-18 19:00:00 9.7 6 Sur 11 Sur 0 -- -- 88
2020-11-18 18:00:00 11.5 9 Sur 12 Sudoeste 0 -- -- 82
2020-11-18 17:00:00 14.4 3 Sur 5 Sudoeste 0 -- -- 71
2020-11-18 16:00:00 16.4 3 Norte 4 Norte 0 -- -- 59
2020-11-18 15:00:00 16 3 Norte 6 Norte 0 -- -- 61
2020-11-18 14:00:00 14.5 3 Norte 6 Norte 0 -- -- 67
2020-11-18 13:00:00 13.4 4 Norte 5 Norte 0 -- -- 73
2020-11-18 12:00:00 11.6 3 Norte 6 Norte 0 -- -- 77
2020-11-18 11:00:00 10.3 2 Norte 5 Noroeste 0 -- -- 82
2020-11-18 10:00:00 9.2 0 Calma 3 Sudeste 0 -- -- 89
2020-11-18 09:00:00 5.7 2 Noroeste 7 Sur 0 -- -- 99
2020-11-18 08:00:00 3.8 3 Sur 5 Sur 0 -- -- 98
2020-11-18 07:00:00 4.1 0 Calma 2 Sur 0 -- -- 97
2020-11-18 06:00:00 4.5 0 Calma 5 Sudoeste 0 -- -- 97
2020-11-18 05:00:00 4.3 3 Sur 6 Sur 0 -- -- 96
2020-11-18 04:00:00 4.7 0 Calma 5 Oeste 0 -- -- 96
2020-11-18 03:00:00 4.8 5 Sur 8 Sudoeste 0 -- -- 96
2020-11-18 02:00:00 5.6 0 Calma 5 Sur 0 -- -- 95
2020-11-18 01:00:00 5.5 2 Sur 7 Sur 0 -- -- 94
2020-11-18 00:00:00 6.6 2 Norte 5 Norte 0 -- -- 93
2020-11-17 23:00:00 6.4 3 Sur 5 Sur 0 -- -- 94
2020-11-17 22:00:00 6.8 3 Sur 4 Sur 0 -- -- 92
2020-11-17 21:00:00 7 3 Sur 5 Sur 0 -- -- 92
2020-11-17 20:00:00 7.7 3 Sur 5 Sur 0 -- -- 90
2020-11-17 19:00:00 8.4 4 Sur 6 Sur 0 -- -- 88
2020-11-17 18:00:00 9.5 4 Sur 5 Sur 0 -- -- 81
2020-11-17 17:00:00 12.8 2 Sur 5 Norte 0 -- -- 69
2020-11-17 16:00:00 14.2 3 Norte 7 Norte 0 -- -- 60
2020-11-17 15:00:00 14.4 5 Norte 8 Norte 0 -- -- 59
2020-11-17 14:00:00 13 5 Norte 7 Norte 0 -- -- 69
2020-11-17 13:00:00 12.7 5 Norte 7 Norte 0 -- -- 68
2020-11-17 12:00:00 11.2 2 Norte 6 Norte 0 -- -- 71
2020-11-17 11:00:00 9.5 3 Norte 5 Norte 0 -- -- 77
2020-11-17 10:00:00 6.9 2 Norte 3 Norte 0 -- -- 83
2020-11-17 09:00:00 4.6 0 Calma 4 Noroeste 0 -- -- 95
2020-11-17 08:00:00 3.3 2 Oeste 6 Sur 0 -- -- 97
2020-11-17 07:00:00 2.9 5 Sur 8 Sur 0 -- -- 96
2020-11-17 06:00:00 3.3 2 Sudoeste 4 Sur 0 -- -- 95
2020-11-17 05:00:00 3.4 2 Sur 9 Sur 0 -- -- 96
2020-11-17 04:00:00 3.6 3 Sur 6 Sudoeste 0 -- -- 94
2020-11-17 03:00:00 4.1 2 Sudoeste 6 Sur 0 -- -- 93
2020-11-17 02:00:00 4.6 5 Sur 10 Sur 0 -- -- 91
2020-11-17 01:00:00 5.8 2 Sur 6 Noroeste 0 -- -- 87
2020-11-17 00:00:00 6.4 2 Nordeste 13 Noroeste 0 -- -- 85
2020-11-16 23:00:00 8.1 9 Noroeste 13 Noroeste 0 -- -- 77
2020-11-16 22:00:00 8.7 5 Noroeste 14 Noroeste 0 -- -- 73
2020-11-16 21:00:00 9.1 14 Noroeste 21 Noroeste 0 -- -- 73
2020-11-16 20:00:00 9.3 12 Noroeste 20 Noroeste 0 -- -- 72
2020-11-16 19:00:00 9.8 10 Noroeste 23 Noroeste 0 -- -- 70
2020-11-16 18:00:00 10.2 12 Noroeste 23 Noroeste 0 -- -- 67
2020-11-16 17:00:00 11.2 19 Noroeste 34 Noroeste 0 -- -- 65
2020-11-16 16:00:00 11.9 25 Noroeste 39 Noroeste 0 -- -- 61
2020-11-16 15:00:00 12.4 24 Noroeste 44 Noroeste 0 -- -- 60
2020-11-16 14:00:00 12.5 21 Noroeste 30 Noroeste 0 -- -- 61
2020-11-16 13:00:00 12.5 13 Noroeste 27 Noroeste 0 -- -- 63
2020-11-16 12:00:00 12.2 18 Norte 31 Noroeste 0 -- -- 64
2020-11-16 11:00:00 11.5 20 Noroeste 27 Noroeste 0 -- -- 77
2020-11-16 10:00:00 10.7 21 Noroeste 29 Noroeste 0 -- -- 81
2020-11-16 09:00:00 9.8 18 Noroeste 25 Norte 0 -- -- 85
2020-11-16 08:00:00 9.1 13 Noroeste 22 Noroeste 0 -- -- 89
2020-11-16 07:00:00 9.5 6 Noroeste 21 Noroeste 0 -- -- 87
2020-11-16 06:00:00 9.9 9 Noroeste 17 Oeste 0 -- -- 87
2020-11-16 05:00:00 10 12 Noroeste 21 Noroeste 0 -- -- 88
2020-11-16 04:00:00 10.2 10 Noroeste 19 Noroeste 0 -- -- 87
2020-11-16 03:00:00 10.6 13 Noroeste 18 Noroeste 0.2 -- -- 89
2020-11-16 02:00:00 10.6 9 Noroeste 27 Noroeste 0.2 -- -- 92
2020-11-16 01:00:00 11.1 18 Noroeste 25 Noroeste 0.2 -- -- 93
2020-11-16 00:00:00 11.6 5 Noroeste 23 Noroeste 1 -- -- 94
2020-11-15 23:00:00 12.3 2 Oeste 11 Oeste 0.4 -- -- 94
2020-11-15 22:00:00 12.9 9 Noroeste 13 Noroeste 0 -- -- 89
2020-11-15 21:00:00 13.3 0 Calma 8 Oeste 0 -- -- 90
2020-11-15 20:00:00 13.8 5 Sudoeste 7 Oeste 0 -- -- 84
2020-11-15 19:00:00 13.5 3 Sur 6 Sur 0 -- -- 83
2020-11-15 18:00:00 14.5 2 Sur 7 Sudoeste 0 -- -- 80
2020-11-15 17:00:00 15 3 Sur 5 Sudeste 0 -- -- 77
2020-11-15 16:00:00 15.9 2 Este 10 Este 0 -- -- 74
2020-11-15 15:00:00 16.6 6 Este 12 Sudeste 0 -- -- 66
2020-11-15 14:00:00 16.7 9 Sudeste 21 Sur 0 -- -- 64
2020-11-15 13:00:00 16.7 13 Sudeste 22 Sur 0 -- -- 64
2020-11-15 12:00:00 16.2 14 Sudeste 18 Sudeste 0 -- -- 64
2020-11-15 11:00:00 15.9 12 Sudeste 17 Sudeste 0 -- -- 66
2020-11-15 10:00:00 14 2 Sudeste 6 Nordeste 0 -- -- 73
2020-11-15 09:00:00 10.2 0 Calma 8 Sudoeste 0 -- -- 88
2020-11-15 08:00:00 10.1 4 Este 10 Sur 0 -- -- 86
2020-11-15 07:00:00 10.1 2 Oeste 6 Sudeste 0 -- -- 85
2020-11-15 06:00:00 10.5 0 Calma 12 Sudeste 0 -- -- 82
2020-11-15 05:00:00 11.1 5 Sur 13 Sudeste 0 -- -- 82
2020-11-15 04:00:00 11.1 0 Calma 8 Sudeste 0 -- -- 82
2020-11-15 03:00:00 9.7 2 Sudeste 8 Sur 0 -- -- 88
2020-11-15 02:00:00 10.1 8 Sur 10 Sur 0 -- -- 87
2020-11-15 01:00:00 11.7 0 Calma 13 Sur 0 -- -- 80
2020-11-15 00:00:00 10.9 8 Sur 10 Sur 0 -- -- 82
2020-11-14 23:00:00 11 2 Sur 6 Este 0 -- -- 80
2020-11-14 22:00:00 12.6 5 Este 12 Sudeste 0 -- -- 76
2020-11-14 21:00:00 12.7 8 Sudeste 13 Sudeste 0 -- -- 75
2020-11-14 20:00:00 13.1 6 Sudeste 22 Sudeste 0 -- -- 73
2020-11-14 19:00:00 13 9 Sudeste 15 Sur 0 -- -- 71
2020-11-14 18:00:00 13.1 7 Sudeste 14 Sudeste 0 -- -- 71
2020-11-14 17:00:00 13.7 9 Sudeste 15 Sudeste 0 -- -- 69
2020-11-14 16:00:00 14.5 11 Sudeste 22 Sur 0 -- -- 67
2020-11-14 15:00:00 14.9 10 Sur 19 Sudeste 0 -- -- 64
2020-11-14 14:00:00 14.5 13 Sudeste 19 Sudeste 0 -- -- 64
2020-11-14 13:00:00 15.1 13 Sudeste 22 Sudeste 0 -- -- 65
2020-11-14 12:00:00 11.8 0 Calma 8 Noroeste 0 -- -- 85
2020-11-14 11:00:00 9.4 3 Norte 13 Sudeste 0 -- -- 90
2020-11-14 10:00:00 10.9 10 Sur 16 Sudeste 0 -- -- 87
2020-11-14 09:00:00 5 0 Calma 3 Sur 0 -- -- 100
2020-11-14 08:00:00 3.7 2 Norte 5 Noroeste 0 -- -- 98
2020-11-14 07:00:00 3.1 0 Calma 4 Sur 0 -- -- 98
2020-11-14 06:00:00 3.4 0 Calma 8 Norte 0 -- -- 98
2020-11-14 05:00:00 3.2 3 Sur 5 Sudoeste 0 -- -- 98
2020-11-14 04:00:00 3.5 0 Calma 5 Sur 0 -- -- 98
2020-11-14 03:00:00 4 0 Calma 2 Oeste 0 -- -- 98
2020-11-14 02:00:00 3.6 0 Calma 5 Sur 0 -- -- 96
2020-11-14 01:00:00 4.5 0 Calma 4 Sur 0 -- -- 95
2020-11-14 00:00:00 6.4 0 Calma 4 Este 0 -- -- 97
2020-11-13 23:00:00 6.7 0 Calma 4 Norte 0 -- -- 97
2020-11-13 22:00:00 6.5 0 Calma 4 Sur 0 -- -- 93
2020-11-13 21:00:00 7 2 Norte 6 Sur 0 -- -- 89
2020-11-13 20:00:00 7.1 5 Sur 7 Sur 0 -- -- 90
2020-11-13 19:00:00 8.5 3 Sur 5 Sur 0 -- -- 88
2020-11-13 18:00:00 10 2 Sudeste 4 Sur 0 -- -- 87
2020-11-13 17:00:00 12 0 Calma 6 Norte 0 -- -- 80
2020-11-13 16:00:00 12.5 4 Norte 9 Norte 0 -- -- 79
2020-11-13 15:00:00 13.3 7 Norte 10 Norte 0 -- -- 79
2020-11-13 14:00:00 12.7 5 Norte 8 Norte 0 -- -- 82
2020-11-13 13:00:00 11.2 8 Norte 12 Norte 0 -- -- 86
2020-11-13 12:00:00 10.7 2 Nordeste 9 Norte 0 -- -- 89
2020-11-13 11:00:00 10.6 2 Norte 6 Norte 0 -- -- 88
2020-11-13 10:00:00 8.5 2 Nordeste 3 Nordeste 0 -- -- 97
2020-11-13 09:00:00 5.6 0 Calma 6 Norte 0 -- -- 97
2020-11-13 08:00:00 5.8 3 Sur 6 Sur 0 -- -- 96
2020-11-13 07:00:00 6.1 2 Sudoeste 5 Noroeste 0 -- -- 95
2020-11-13 06:00:00 5.8 2 Sur 4 Sudoeste 0 -- -- 97
2020-11-13 05:00:00 5.9 2 Sur 9 Noroeste 0 -- -- 97
2020-11-13 04:00:00 6.2 2 Sur 5 Sur 0 -- -- 98
2020-11-13 03:00:00 5.8 3 Oeste 8 Noroeste 0 -- -- 99
2020-11-13 02:00:00 5.3 2 Sur 4 Sur 0 -- -- 97
2020-11-13 01:00:00 5 0 Calma 3 Sur 0 -- -- 96
2020-11-13 00:00:00 5.5 0 Calma 6 Sur 0 -- -- 95
2020-11-12 23:00:00 5.9 3 Sur 5 Sur 0 -- -- 94
2020-11-12 22:00:00 6.6 2 Sur 5 Sur 0 -- -- 92
2020-11-12 21:00:00 6.9 0 Calma 9 Sur 0 -- -- 91
2020-11-12 20:00:00 7.6 4 Sur 11 Sur 0 -- -- 92
2020-11-12 19:00:00 8.4 6 Sur 9 Sudoeste 0 -- -- 91
2020-11-12 18:00:00 10.4 3 Sur 3 Sur 0 -- -- 84
2020-11-12 17:00:00 12.3 5 Norte 13 Sur 0 -- -- 81
2020-11-12 16:00:00 15.3 11 Sur 17 Sur 0 -- -- 68
2020-11-12 15:00:00 15.3 10 Sur 14 Sur 0 -- -- 67
2020-11-12 14:00:00 14.7 4 Norte 7 Norte 0 -- -- 71
2020-11-12 13:00:00 12.8 3 Norte 6 Norte 0 -- -- 80
2020-11-12 12:00:00 10.5 4 Norte 8 Norte 0 -- -- 87
2020-11-12 11:00:00 9.6 4 Norte 4 Norte 0 -- -- 86
2020-11-12 10:00:00 8.2 0 Calma 2 Norte 0 -- -- 88
2020-11-12 09:00:00 5.5 0 Calma 2 Oeste 0 -- -- 96
2020-11-12 08:00:00 5.2 2 Norte 3 Sudoeste 0 -- -- 95
2020-11-12 07:00:00 6 2 Sur 5 Sur 0 -- -- 94
2020-11-12 06:00:00 6.4 0 Calma 4 Sur 0 -- -- 94
2020-11-12 05:00:00 6.4 2 Sudoeste 7 Sur 0 -- -- 93
2020-11-12 04:00:00 6.7 3 Sur 4 Sur 0 -- -- 92
2020-11-12 03:00:00 7.1 2 Sudoeste 10 Sur 0 -- -- 92
2020-11-12 02:00:00 6.5 5 Sur 8 Sur 0 -- -- 93
2020-11-12 01:00:00 6.8 3 Sur 7 Sur 0 -- -- 92
2020-11-12 00:00:00 7.4 4 Sur 6 Sur 0 -- -- 91
2020-11-11 23:00:00 7.9 0 Calma 9 Sudoeste 0 -- -- 88
2020-11-11 22:00:00 8 3 Sudoeste 5 Sudoeste 0 -- -- 89
2020-11-11 21:00:00 8.6 3 Sudeste 11 Sur 0 -- -- 83
2020-11-11 20:00:00 9.5 7 Sur 9 Sur 0 -- -- 79
2020-11-11 19:00:00 9.5 4 Sur 6 Sudoeste 0 -- -- 78
2020-11-11 18:00:00 11.8 5 Sur 11 Sudeste 0 -- -- 71
2020-11-11 17:00:00 14 4 Sur 16 Sudeste 0 -- -- 62
2020-11-11 16:00:00 14.9 14 Sudeste 22 Sudeste 0 -- -- 56
2020-11-11 15:00:00 15.9 9 Sudeste 22 Sur 0 -- -- 54
2020-11-11 14:00:00 16.3 11 Sur 20 Sudeste 0 -- -- 57
2020-11-11 13:00:00 13 6 Este 22 Sur 0 -- -- 75
2020-11-11 12:00:00 9.3 5 Norte 7 Norte 0 -- -- 93
2020-11-11 11:00:00 8.8 5 Norte 6 Noroeste 0 -- -- 91
2020-11-11 10:00:00 9.4 2 Nordeste 3 Nordeste 0 -- -- 91
2020-11-11 09:00:00 6.2 0 Calma 3 Sur 0 -- -- 100
2020-11-11 08:00:00 4.6 3 Sur 5 Noroeste 0 -- -- 98
2020-11-11 07:00:00 4.5 3 Sur 5 Sudoeste 0 -- -- 97
2020-11-11 06:00:00 5.2 2 Noroeste 5 Sur 0 -- -- 97
2020-11-11 05:00:00 5.4 0 Calma 4 Oeste 0 -- -- 96
2020-11-11 04:00:00 5.5 3 Sur 6 Sudoeste 0 -- -- 96
2020-11-11 03:00:00 5.6 0 Calma 4 Sur 0 -- -- 96
2020-11-11 02:00:00 6.1 2 Sur 4 Sur 0 -- -- 96
2020-11-11 01:00:00 6.1 3 Sur 8 Sudoeste 0 -- -- 95
2020-11-11 00:00:00 6.4 6 Sur 8 Sur 0 -- -- 94
2020-11-10 23:00:00 7.3 6 Sur 10 Sudoeste 0 -- -- 93
2020-11-10 22:00:00 7.5 6 Sur 10 Sur 0 -- -- 93
2020-11-10 21:00:00 7.2 5 Sur 8 Sudoeste 0 -- -- 92
2020-11-10 20:00:00 8.5 4 Sur 6 Sur 0 -- -- 88
2020-11-10 19:00:00 9.2 3 Sur 5 Sur 0 -- -- 85
2020-11-10 18:00:00 11.4 2 Sur 6 Sur 0 -- -- 78
2020-11-10 17:00:00 15 2 Sudoeste 8 Noroeste 0 -- -- 63
2020-11-10 16:00:00 16.2 4 Noroeste 14 Oeste 0 -- -- 56
2020-11-10 15:00:00 15.8 8 Noroeste 13 Oeste 0 -- -- 62
2020-11-10 14:00:00 15.2 8 Norte 15 Norte 0 -- -- 66
2020-11-10 13:00:00 14.4 6 Noroeste 13 Norte 0 -- -- 71
2020-11-10 12:00:00 13 5 Noroeste 10 Noroeste 0 -- -- 78
2020-11-10 11:00:00 12.1 3 Norte 6 Noroeste 0 -- -- 80
2020-11-10 10:00:00 9.8 3 Noroeste 5 Oeste 0 -- -- 87
2020-11-10 09:00:00 7.5 0 Calma 3 Sudoeste 0 -- -- 98
2020-11-10 08:00:00 6.9 2 Oeste 6 Oeste 0 -- -- 95
2020-11-10 07:00:00 7.1 3 Oeste 8 Oeste 0 -- -- 96
2020-11-10 06:00:00 6.7 4 Oeste 6 Oeste 0 -- -- 98
2020-11-10 05:00:00 6.6 0 Calma 2 Sudoeste 0 -- -- 98
2020-11-10 04:00:00 5.8 2 Sur 4 Sur 0 -- -- 98
2020-11-10 03:00:00 6 2 Oeste 6 Sudoeste 0 -- -- 97
2020-11-10 02:00:00 6.2 0 Calma 4 Sur 0 -- -- 97
2020-11-10 01:00:00 6.8 0 Calma 6 Sudoeste 0 -- -- 96
2020-11-10 00:00:00 7 4 Sur 8 Sur 0 -- -- 97
2020-11-09 23:00:00 7.4 4 Sur 7 Sur 0 -- -- 96
2020-11-09 22:00:00 7.4 4 Sur 7 Sur 0 -- -- 95
2020-11-09 21:00:00 8 2 Sur 12 Sur 0 -- -- 94
2020-11-09 20:00:00 8 5 Sur 9 Sudoeste 0 -- -- 93
2020-11-09 19:00:00 8.9 4 Sur 11 Sur 0 -- -- 91
2020-11-09 18:00:00 10.4 8 Sur 10 Sudoeste 0 -- -- 87
2020-11-09 17:00:00 12.9 0 Calma 4 Nordeste 0 -- -- 77
2020-11-09 16:00:00 13.4 4 Norte 8 Norte 0 -- -- 78
2020-11-09 15:00:00 12.4 0 Calma 5 Norte 0 -- -- 80
2020-11-09 14:00:00 11.5 3 Este 5 Norte 0.2 -- -- 87
2020-11-09 13:00:00 11.4 4 Norte 8 Norte 0 -- -- 85
2020-11-09 12:00:00 11.8 4 Norte 6 Norte 0 -- -- 83
2020-11-09 11:00:00 11.6 3 Noroeste 10 Nordeste 0 -- -- 81
2020-11-09 10:00:00 12.2 4 Nordeste 13 Sudeste 0 -- -- 76
2020-11-09 09:00:00 10.1 0 Calma 5 Sur 0 -- -- 87
2020-11-09 08:00:00 8.2 2 Sur 6 Norte 0 -- -- 89
2020-11-09 07:00:00 8.8 2 Sur 8 Norte 0 -- -- 85
2020-11-09 06:00:00 10.5 7 Sudeste 14 Sudeste 0 -- -- 79
2020-11-09 05:00:00 9.7 4 Sudeste 17 Sudeste 0 -- -- 80
2020-11-09 04:00:00 11.1 11 Sur 19 Sudeste 0 -- -- 73
2020-11-09 03:00:00 10.5 10 Sur 14 Sur 0 -- -- 72
2020-11-09 02:00:00 9.1 2 Sur 12 Sudeste 0 -- -- 78
2020-11-09 01:00:00 9.3 4 Sur 9 Sur 0 -- -- 79
2020-11-09 00:00:00 10.2 6 Sur 10 Sur 0 -- -- 75
2020-11-08 23:00:00 10.7 6 Sur 14 Sudeste 0 -- -- 75
2020-11-08 22:00:00 11.5 10 Sur 14 Sur 0 -- -- 70
2020-11-08 21:00:00 11.4 9 Sur 15 Sudeste 0 -- -- 70
2020-11-08 20:00:00 10.9 9 Sur 15 Sudeste 0 -- -- 70
2020-11-08 19:00:00 10.9 8 Sur 13 Sudeste 0 -- -- 72
2020-11-08 18:00:00 12.1 4 Sur 14 Sudeste 0 -- -- 70
2020-11-08 17:00:00 14 8 Sudeste 17 Sudeste 0 -- -- 65
2020-11-08 16:00:00 14.2 10 Sudeste 18 Este 0 -- -- 65
2020-11-08 15:00:00 14.6 12 Sudeste 24 Sudeste 0 -- -- 64
2020-11-08 14:00:00 14.7 13 Sudeste 32 Sudeste 0 -- -- 65
2020-11-08 13:00:00 14.5 22 Sudeste 30 Sudeste 0 -- -- 65
2020-11-08 12:00:00 13.2 14 Sudeste 24 Sudeste 0 -- -- 72
2020-11-08 11:00:00 13.5 12 Sudeste 26 Sudeste 0 -- -- 73
2020-11-08 10:00:00 13.1 11 Sudeste 19 Sudeste 0 -- -- 79
2020-11-08 09:00:00 9.5 2 Norte 7 Sur 0 -- -- 92
2020-11-08 08:00:00 8.1 3 Sudoeste 10 Sur 0 -- -- 92
2020-11-08 07:00:00 8.1 5 Sur 7 Sudoeste 0 -- -- 94
2020-11-08 06:00:00 8 4 Sur 8 Sur 0 -- -- 93
2020-11-08 05:00:00 8.9 7 Sur 9 Sur 0 -- -- 91
2020-11-08 04:00:00 9.8 2 Sudeste 6 Sudoeste 0 -- -- 89
2020-11-08 03:00:00 11 4 Sur 10 Sudoeste 0 -- -- 86
2020-11-08 02:00:00 11.8 3 Nordeste 6 Sudeste 0 -- -- 83
2020-11-08 01:00:00 11.6 3 Sudeste 8 Sudeste 0 -- -- 86
2020-11-08 00:00:00 11.5 3 Este 8 Este 0 -- -- 86
2020-11-07 23:00:00 11.4 2 Nordeste 14 Sur 0 -- -- 87
2020-11-07 22:00:00 11.9 10 Sur 17 Sur 0 -- -- 86
2020-11-07 21:00:00 11.9 5 Sudeste 13 Sur 0 -- -- 89
2020-11-07 20:00:00 12 5 Sur 14 Sur 0.2 -- -- 87
2020-11-07 19:00:00 12.1 8 Sur 16 Sur 0 -- -- 89
2020-11-07 18:00:00 12.4 10 Sur 24 Sudeste 0 -- -- 88
2020-11-07 17:00:00 12.4 12 Sur 22 Sur 0.6 -- -- 90
2020-11-07 16:00:00 12.5 20 Sudeste 26 Sudeste 0.2 -- -- 89
2020-11-07 15:00:00 13.7 17 Sudeste 27 Sudeste 0 -- -- 81
2020-11-07 14:00:00 13.3 13 Sudeste 19 Sur 0 -- -- 79
2020-11-07 13:00:00 13 9 Sur 17 Sudeste 0 -- -- 82
2020-11-07 12:00:00 12.3 2 Noroeste 8 Este 0.2 -- -- 92
2020-11-07 11:00:00 11.4 8 Este 14 Este 6.6 -- -- 93
2020-11-07 10:00:00 11.8 2 Este 10 Sur 7.8 -- -- 93
2020-11-07 09:00:00 11.9 10 Sur 30 Sudoeste 11.4 -- -- 94
2020-11-07 08:00:00 12.5 22 Sudeste 42 Este 7.8 -- -- 86
2020-11-07 07:00:00 15.8 31 Este 53 Sudeste 0 -- -- 66
2020-11-07 06:00:00 15.6 27 Sudeste 61 Sudeste 0 -- -- 69
2020-11-07 05:00:00 15.5 16 Sudeste 51 Este 0 -- -- 69
2020-11-07 04:00:00 15.5 28 Sudeste 41 Sur 0 -- -- 70
2020-11-07 03:00:00 15.4 18 Sudeste 46 Sudeste 0 -- -- 70
2020-11-07 02:00:00 15.4 26 Sudeste 47 Sudeste 0 -- -- 71
2020-11-07 01:00:00 15.4 31 Sudeste 68 Sudeste 0 -- -- 71
2020-11-07 00:00:00 15.4 34 Sudeste 54 Sudeste 0 -- -- 71
2020-11-06 23:00:00 15.6 30 Sudeste 62 Sudeste 0 -- -- 69
2020-11-06 22:00:00 15.7 36 Sudeste 51 Sudeste 0 -- -- 69
2020-11-06 21:00:00 15.8 31 Sudeste 54 Sudeste 0 -- -- 69
2020-11-06 20:00:00 15.8 33 Sudeste 47 Este 0 -- -- 68
2020-11-06 19:00:00 16 27 Sudeste 52 Este 0 -- -- 68
2020-11-06 18:00:00 15.6 27 Sudeste 47 Sudeste 0 -- -- 70
2020-11-06 17:00:00 16 29 Sudeste 51 Sudeste 0 -- -- 69
2020-11-06 16:00:00 15.8 26 Sudeste 45 Este 0 -- -- 70
2020-11-06 15:00:00 16.4 22 Sudeste 38 Sudeste 0 -- -- 68
2020-11-06 14:00:00 16.4 18 Sudeste 35 Sudeste 0 -- -- 67
2020-11-06 13:00:00 16 17 Sudeste 30 Sudeste 0 -- -- 70
2020-11-06 12:00:00 17.3 14 Sudeste 27 Sur 0 -- -- 65
2020-11-06 11:00:00 16.4 16 Este 34 Este 0 -- -- 66
2020-11-06 10:00:00 15.4 23 Sudeste 33 Este 0 -- -- 71
2020-11-06 09:00:00 14.7 18 Sudeste 30 Sudeste 0 -- -- 74
2020-11-06 08:00:00 14.3 18 Sudeste 26 Sudeste 0 -- -- 76
2020-11-06 07:00:00 14 11 Sudeste 33 Sudeste 0 -- -- 77
2020-11-06 06:00:00 14.1 16 Sudeste 42 Sudeste 0 -- -- 75
2020-11-06 05:00:00 14.4 24 Sudeste 44 Sudeste 0 -- -- 73
2020-11-06 04:00:00 14.1 21 Sudeste 39 Este 0 -- -- 74
2020-11-06 03:00:00 13.9 23 Sudeste 39 Sur 0 -- -- 74
2020-11-06 02:00:00 13.7 30 Sudeste 49 Sudeste 0 -- -- 75
2020-11-06 01:00:00 13.4 24 Sudeste 36 Este 0 -- -- 76
2020-11-06 00:00:00 12.9 22 Sudeste 34 Sudeste 0.2 -- -- 79
2020-11-05 23:00:00 14.1 15 Sudeste 30 Sudeste 0 -- -- 64
2020-11-05 22:00:00 14.1 14 Sudeste 28 Sudeste 0 -- -- 67
2020-11-05 21:00:00 13.9 14 Sudeste 31 Sudeste 0 -- -- 69
2020-11-05 20:00:00 12.4 5 Este 14 Sudeste 0 -- -- 76
2020-11-05 19:00:00 12.5 9 Sudeste 21 Sur 0 -- -- 74
2020-11-05 18:00:00 12.4 7 Sur 16 Sudeste 0 -- -- 74
2020-11-05 17:00:00 13.5 13 Sudeste 26 Sur 0 -- -- 68
2020-11-05 16:00:00 13.8 14 Sudeste 27 Sudeste 0 -- -- 65
2020-11-05 15:00:00 14.6 15 Sur 33 Sudeste 0 -- -- 59
2020-11-05 14:00:00 14.3 17 Sudeste 24 Sur 0 -- -- 61
2020-11-05 13:00:00 12.5 3 Nordeste 5 Norte 0 -- -- 72
2020-11-05 12:00:00 9.9 4 Norte 7 Norte 0 -- -- 80
2020-11-05 11:00:00 9.7 2 Noroeste 6 Norte 0 -- -- 80
2020-11-05 10:00:00 9.6 3 Sudeste 5 Norte 0 -- -- 79
2020-11-05 09:00:00 7.6 0 Calma 6 Norte 0 -- -- 89
2020-11-05 08:00:00 6.1 4 Sudoeste 6 Sudoeste 0 -- -- 93
2020-11-05 07:00:00 6.6 2 Sur 6 Sudoeste 0 -- -- 90
2020-11-05 06:00:00 7.1 0 Calma 4 Noroeste 0 -- -- 89
2020-11-05 05:00:00 6.9 0 Calma 5 Sur 0 -- -- 91
2020-11-05 04:00:00 6.7 3 Sur 4 Sur 0 -- -- 89
2020-11-05 03:00:00 6.9 0 Calma 3 Noroeste 0 -- -- 89
2020-11-05 02:00:00 6.9 3 Noroeste 4 Noroeste 0 -- -- 87
2020-11-05 01:00:00 6.9 0 Calma 3 Sur 0 -- -- 89
2020-11-05 00:00:00 6.9 0 Calma 5 Sudoeste 0 -- -- 88
2020-11-04 23:00:00 7 2 Sur 4 Sur 0 -- -- 88
2020-11-04 22:00:00 6.9 0 Calma 5 Noroeste 0 -- -- 86
2020-11-04 21:00:00 7.2 0 Calma 2 Sudoeste 0 -- -- 85
2020-11-04 20:00:00 7.5 3 Norte 9 Noroeste 0 -- -- 83
2020-11-04 19:00:00 7.9 3 Noroeste 5 Noroeste 0 -- -- 80
2020-11-04 18:00:00 7.9 0 Calma 5 Noroeste 0 -- -- 78
2020-11-04 17:00:00 8.1 2 Oeste 6 Noroeste 0 -- -- 76
2020-11-04 16:00:00 8.4 3 Este 8 Noroeste 0 -- -- 75
2020-11-04 15:00:00 8.1 6 Noroeste 10 Noroeste 0 -- -- 74
2020-11-04 14:00:00 8.4 4 Norte 6 Norte 0 -- -- 72
2020-11-04 13:00:00 8.4 4 Norte 7 Norte 0 -- -- 69
2020-11-04 12:00:00 8.1 2 Norte 9 Norte 0 -- -- 73
2020-11-04 11:00:00 7.7 2 Oeste 4 Noroeste 0 -- -- 69
2020-11-04 10:00:00 6.8 3 Noroeste 6 Oeste 0 -- -- 73
2020-11-04 09:00:00 6.3 2 Noroeste 13 Noroeste 0 -- -- 76
2020-11-04 08:00:00 6 7 Noroeste 16 Noroeste 0 -- -- 75
2020-11-04 07:00:00 6.3 6 Noroeste 14 Noroeste 0 -- -- 76
2020-11-04 06:00:00 6.6 12 Noroeste 21 Noroeste 0 -- -- 75
2020-11-04 05:00:00 6.7 12 Noroeste 20 Noroeste 0 -- -- 75
2020-11-04 04:00:00 6.6 17 Noroeste 28 Noroeste 0 -- -- 74
2020-11-04 03:00:00 6.8 17 Noroeste 25 Noroeste 0 -- -- 72
2020-11-04 02:00:00 6.8 18 Noroeste 28 Noroeste 0 -- -- 73
2020-11-04 01:00:00 7 16 Noroeste 31 Noroeste 0 -- -- 73
2020-11-04 00:00:00 7.3 14 Noroeste 30 Noroeste 0 -- -- 74
2020-11-03 23:00:00 7.5 17 Noroeste 32 Noroeste 0 -- -- 73
2020-11-03 22:00:00 7.7 23 Noroeste 36 Noroeste 0 -- -- 77
2020-11-03 21:00:00 8.3 24 Noroeste 32 Noroeste 0 -- -- 74
2020-11-03 20:00:00 8.9 19 Noroeste 33 Oeste 0 -- -- 76
2020-11-03 19:00:00 9.4 23 Noroeste 38 Noroeste 0 -- -- 79
2020-11-03 18:00:00 9.9 25 Noroeste 34 Noroeste 0 -- -- 76
2020-11-03 17:00:00 10.9 24 Noroeste 37 Noroeste 0 -- -- 69
2020-11-03 16:00:00 11.5 24 Noroeste 33 Noroeste 0 -- -- 67
2020-11-03 15:00:00 11.5 21 Noroeste 37 Noroeste 0 -- -- 70
2020-11-03 14:00:00 11 21 Noroeste 29 Noroeste 0 -- -- 75
2020-11-03 13:00:00 10.7 21 Noroeste 36 Noroeste 0 -- -- 76
2020-11-03 12:00:00 10.6 20 Noroeste 32 Noroeste 0 -- -- 79
2020-11-03 11:00:00 10.2 17 Noroeste 30 Noroeste 0.2 -- -- 82
2020-11-03 10:00:00 9.9 14 Noroeste 30 Noroeste 1.6 -- -- 86
2020-11-03 09:00:00 10 17 Noroeste 28 Noroeste 0.2 -- -- 87
2020-11-03 08:00:00 10.4 13 Noroeste 25 Noroeste 0.2 -- -- 86
2020-11-03 07:00:00 11.2 12 Noroeste 23 Noroeste 0 -- -- 81
2020-11-03 06:00:00 11.6 17 Noroeste 23 Noroeste 0 -- -- 80
2020-11-03 05:00:00 11.5 9 Noroeste 21 Noroeste 0 -- -- 82
2020-11-03 04:00:00 11.6 6 Oeste 14 Noroeste 0 -- -- 81
2020-11-03 03:00:00 11.6 6 Noroeste 21 Noroeste 0 -- -- 81
2020-11-03 02:00:00 11.9 9 Noroeste 21 Noroeste 0 -- -- 83
2020-11-03 01:00:00 12.1 6 Oeste 13 Oeste 0 -- -- 83
2020-11-03 00:00:00 12.7 9 Noroeste 22 Noroeste 0 -- -- 80
2020-11-02 23:00:00 13.4 13 Noroeste 19 Noroeste 0 -- -- 78
2020-11-02 22:00:00 14 10 Noroeste 24 Noroeste 0 -- -- 77
2020-11-02 21:00:00 14.9 13 Noroeste 23 Noroeste 0 -- -- 76
2020-11-02 20:00:00 15.5 11 Noroeste 16 Oeste 0 -- -- 76
2020-11-02 19:00:00 15.5 0 Calma 5 Sudoeste 0 -- -- 67
2020-11-02 18:00:00 18.1 0 Calma 9 Oeste 0 -- -- 59
2020-11-02 17:00:00 19.8 5 Oeste 14 Oeste 0 -- -- 53
2020-11-02 16:00:00 20.9 6 Noroeste 14 Noroeste 0 -- -- 51
2020-11-02 15:00:00 21.3 9 Noroeste 12 Norte 0 -- -- 50
2020-11-02 14:00:00 21.1 6 Oeste 14 Sudoeste 0 -- -- 51
2020-11-02 13:00:00 19.8 7 Norte 11 Norte 0 -- -- 54
2020-11-02 12:00:00 18.7 5 Norte 8 Norte 0 -- -- 59
2020-11-02 11:00:00 16.2 4 Norte 5 Norte 0 -- -- 73
2020-11-02 10:00:00 14.2 0 Calma 5 Noroeste 0 -- -- 76
2020-11-02 09:00:00 13 3 Noroeste 4 Noroeste 0 -- -- 80
2020-11-02 08:00:00 11.4 0 Calma 5 Sudoeste 0 -- -- 85
2020-11-02 07:00:00 10.8 3 Sur 5 Sur 0 -- -- 85
2020-11-02 06:00:00 11.3 0 Calma 5 Noroeste 0 -- -- 84
2020-11-02 05:00:00 11.8 2 Sur 6 Norte 0 -- -- 81
2020-11-02 04:00:00 12.3 2 Oeste 4 Sur 0 -- -- 80
2020-11-02 03:00:00 12.5 0 Calma 5 Noroeste 0 -- -- 79
2020-11-02 02:00:00 11.6 2 Sur 7 Sur 0 -- -- 81
2020-11-02 01:00:00 11.7 0 Calma 7 Sur 0 -- -- 80
2020-11-02 00:00:00 11.7 2 Sur 6 Sur 0 -- -- 79
2020-11-01 23:00:00 12.4 3 Sur 8 Sudoeste 0 -- -- 77
2020-11-01 22:00:00 13.3 5 Sur 10 Sur 0 -- -- 74
2020-11-01 21:00:00 12.9 5 Sur 9 Sur 0 -- -- 75
2020-11-01 20:00:00 13.8 5 Sur 11 Sur 0 -- -- 75
2020-11-01 19:00:00 14.4 8 Sur 12 Sudoeste 0 -- -- 74
2020-11-01 18:00:00 17 4 Sur 8 Sur 0 -- -- 65
2020-11-01 17:00:00 19.8 0 Calma 5 Nordeste 0 -- -- 55
2020-11-01 16:00:00 20.5 4 Este 9 Nordeste 0 -- -- 52
2020-11-01 15:00:00 20.7 6 Nordeste 11 Nordeste 0 -- -- 51
2020-11-01 14:00:00 19.7 5 Noroeste 9 Norte 0 -- -- 53
2020-11-01 13:00:00 18.8 5 Norte 8 Norte 0 -- -- 59
2020-11-01 12:00:00 17.7 5 Norte 7 Nordeste 0 -- -- 59
2020-11-01 11:00:00 14.7 3 Norte 8 Norte 0 -- -- 71
2020-11-01 10:00:00 11.6 3 Norte 6 Norte 0 -- -- 79
2020-11-01 09:00:00 9.5 0 Calma 6 Sur 0 -- -- 90
2020-11-01 08:00:00 7.3 0 Calma 8 Sudoeste 0 -- -- 91
2020-11-01 07:00:00 7.1 3 Sur 5 Noroeste 0 -- -- 91
2020-11-01 06:00:00 7.7 3 Sudoeste 8 Sur 0 -- -- 91
2020-11-01 05:00:00 8 4 Sur 11 Norte 0 -- -- 89
2020-11-01 04:00:00 8.4 4 Noroeste 9 Sudoeste 0 -- -- 89
2020-11-01 03:00:00 8.2 3 Sudoeste 5 Sudoeste 0 -- -- 88
2020-11-01 02:00:00 9.1 0 Calma 8 Sudoeste 0 -- -- 85
2020-11-01 01:00:00 9.2 4 Sur 6 Sur 0 -- -- 85
2020-11-01 00:00:00 9.6 0 Calma 4 Sudoeste 0 -- -- 83
2020-10-31 23:00:00 10.3 2 Sur 6 Sur 0 -- -- 80
2020-10-31 22:00:00 11.2 0 Calma 5 Sudoeste 0 -- -- 78
2020-10-31 21:00:00 11.2 4 Sur 10 Sur 0 -- -- 74
2020-10-31 20:00:00 11.7 8 Sur 12 Sudoeste 0 -- -- 75
2020-10-31 19:00:00 12.4 8 Sur 13 Sudoeste 0 -- -- 70
2020-10-31 18:00:00 14.9 4 Sur 8 Sudoeste 0 -- -- 61
2020-10-31 17:00:00 19.2 7 Sur 9 Noroeste 0 -- -- 46
2020-10-31 16:00:00 19 5 Noroeste 10 Noroeste 0 -- -- 50
2020-10-31 15:00:00 19 10 Noroeste 17 Noroeste 0 -- -- 47
2020-10-31 14:00:00 19.5 4 Norte 8 Norte 0 -- -- 49
2020-10-31 13:00:00 17.3 3 Norte 7 Norte 0 -- -- 58
2020-10-31 12:00:00 14.1 8 Noroeste 12 Noroeste 0 -- -- 70
2020-10-31 11:00:00 12.2 2 Nordeste 6 Nordeste 0 -- -- 78
2020-10-31 10:00:00 11.1 5 Norte 6 Norte 0 -- -- 77
2020-10-31 09:00:00 8.3 0 Calma 5 Oeste 0 -- -- 88
2020-10-31 08:00:00 5.1 2 Sudoeste 5 Sur 0 -- -- 94
2020-10-31 07:00:00 5.4 3 Sudoeste 7 Sur 0 -- -- 94
2020-10-31 06:00:00 6 0 Calma 6 Noroeste 0 -- -- 91
2020-10-31 05:00:00 7.1 5 Oeste 7 Oeste 0 -- -- 93
2020-10-31 04:00:00 6.4 0 Calma 3 Sur 0 -- -- 92
2020-10-31 03:00:00 6.8 0 Calma 5 Sudoeste 0 -- -- 90
2020-10-31 02:00:00 7.2 0 Calma 5 Sur 0 -- -- 89
2020-10-31 01:00:00 7.5 0 Calma 3 Sur 0 -- -- 89
2020-10-31 00:00:00 8.1 0 Calma 4 Sur 0 -- -- 85
2020-10-30 23:00:00 9.3 2 Sur 7 Sur 0 -- -- 84
2020-10-30 22:00:00 10.6 4 Sur 10 Sur 0 -- -- 83
2020-10-30 21:00:00 10.7 6 Sur 12 Sur 0 -- -- 82
2020-10-30 20:00:00 11.6 9 Sur 12 Sudoeste 0 -- -- 76
2020-10-30 19:00:00 11.4 6 Sur 9 Sur 0 -- -- 75
2020-10-30 18:00:00 13.8 5 Sur 7 Sur 0 -- -- 70
2020-10-30 17:00:00 17.9 0 Calma 6 Norte 0 -- -- 59
2020-10-30 16:00:00 18.3 4 Norte 8 Norte 0 -- -- 57
2020-10-30 15:00:00 18.1 4 Norte 8 Norte 0 -- -- 58
2020-10-30 14:00:00 16.8 5 Norte 8 Nordeste 0 -- -- 60
2020-10-30 13:00:00 15.3 5 Norte 7 Nordeste 0 -- -- 73
2020-10-30 12:00:00 13.1 2 Norte 5 Nordeste 0 -- -- 77
2020-10-30 11:00:00 11.5 3 Norte 4 Norte 0 -- -- 80
2020-10-30 10:00:00 10.1 0 Calma 3 Nordeste 0 -- -- 85
2020-10-30 09:00:00 7.1 0 Calma 5 Norte 0 -- -- 96
2020-10-30 08:00:00 5.1 2 Sudoeste 4 Sur 0 -- -- 96
2020-10-30 07:00:00 4.9 2 Sur 3 Sur 0 -- -- 95
2020-10-30 06:00:00 5.5 2 Sur 5 Sur 0 -- -- 95
2020-10-30 05:00:00 5.6 0 Calma 4 Sur 0 -- -- 94
2020-10-30 04:00:00 5.9 0 Calma 4 Sur 0 -- -- 94
2020-10-30 03:00:00 6.4 0 Calma 4 Sur 0 -- -- 93
2020-10-30 02:00:00 6.9 2 Oeste 3 Oeste 0 -- -- 92
2020-10-30 01:00:00 7.5 0 Calma 2 Sur 0 -- -- 90
2020-10-30 00:00:00 8.2 2 Sur 5 Sur 0 -- -- 87
2020-10-29 23:00:00 8.9 0 Calma 6 Sur 0 -- -- 87
2020-10-29 22:00:00 9.2 2 Sur 6 Sur 0 -- -- 87
2020-10-29 21:00:00 9.8 5 Sur 10 Sur 0 -- -- 84
2020-10-29 20:00:00 10.1 7 Sudoeste 12 Sudoeste 0 -- -- 82
2020-10-29 19:00:00 11.6 7 Sur 13 Sur 0 -- -- 75
2020-10-29 18:00:00 13.2 7 Sur 11 Sur 0 -- -- 72
2020-10-29 17:00:00 17.1 0 Calma 5 Oeste 0 -- -- 56
2020-10-29 16:00:00 17.4 3 Norte 9 Noroeste 0 -- -- 55
2020-10-29 15:00:00 17.2 3 Nordeste 10 Norte 0 -- -- 55
2020-10-29 14:00:00 16.5 7 Norte 10 Noroeste 0 -- -- 60
2020-10-29 13:00:00 15.6 4 Norte 10 Norte 0 -- -- 60
2020-10-29 12:00:00 14.4 3 Nordeste 8 Norte 0 -- -- 67
2020-10-29 11:00:00 12.5 5 Norte 6 Norte 0 -- -- 76
2020-10-29 10:00:00 11.2 5 Norte 8 Norte 0 -- -- 81
2020-10-29 09:00:00 8.4 0 Calma 7 Norte 0 -- -- 90
2020-10-29 08:00:00 5.5 2 Sudoeste 6 Sur 0 -- -- 95
2020-10-29 07:00:00 5.9 2 Sur 5 Sur 0 -- -- 92
2020-10-29 06:00:00 6.7 4 Sur 8 Sur 0 -- -- 94
2020-10-29 05:00:00 6.8 2 Sur 6 Sur 0 -- -- 90
2020-10-29 04:00:00 8.1 0 Calma 4 Sudoeste 0 -- -- 90
2020-10-29 03:00:00 8 0 Calma 6 Sur 0 -- -- 91
2020-10-29 02:00:00 8.2 2 Sur 7 Sur 0 -- -- 86
2020-10-29 01:00:00 10.3 3 Sur 5 Noroeste 0 -- -- 80
2020-10-29 00:00:00 10.7 4 Oeste 6 Sudoeste 0 -- -- 78
2020-10-28 23:00:00 9 0 Calma 5 Sudoeste 0 -- -- 91
2020-10-28 22:00:00 9.8 5 Sur 8 Sur 0 -- -- 89
2020-10-28 21:00:00 9.8 3 Sur 6 Sur 0 -- -- 92
2020-10-28 20:00:00 10 2 Sudoeste 4 Sur 0 -- -- 88
2020-10-28 19:00:00 11.2 4 Sudoeste 8 Sudoeste 0 -- -- 85
2020-10-28 18:00:00 12.9 3 Sur 5 Sur 0 -- -- 77
2020-10-28 17:00:00 15.6 4 Norte 8 Noroeste 0 -- -- 67
2020-10-28 16:00:00 16.4 5 Norte 10 Este 0 -- -- 62
2020-10-28 15:00:00 15.2 5 Norte 10 Norte 0 -- -- 67
2020-10-28 14:00:00 15.2 4 Norte 7 Norte 0 -- -- 69
2020-10-28 13:00:00 14.6 5 Noroeste 9 Noroeste 0 -- -- 70
2020-10-28 12:00:00 13.8 2 Nordeste 9 Norte 0 -- -- 74
2020-10-28 11:00:00 12 3 Norte 6 Nordeste 0 -- -- 82
2020-10-28 10:00:00 10.2 2 Nordeste 5 Norte 0 -- -- 86
2020-10-28 09:00:00 9.4 0 Calma 5 Sur 0 -- -- 90
2020-10-28 08:00:00 8.3 2 Oeste 5 Noroeste 0 -- -- 89
2020-10-28 07:00:00 7.4 0 Calma 6 Norte 0 -- -- 91
2020-10-28 06:00:00 7.2 2 Sur 6 Sur 0 -- -- 90
2020-10-28 05:00:00 7.2 0 Calma 5 Sudoeste 0 -- -- 89
2020-10-28 04:00:00 7.2 2 Sur 10 Sur 0 -- -- 88
2020-10-28 03:00:00 6.5 5 Sur 7 Sur 0 -- -- 89
2020-10-28 02:00:00 6.6 5 Sur 8 Sudoeste 0 -- -- 87
2020-10-28 01:00:00 8.2 0 Calma 4 Sur 0 -- -- 84
2020-10-28 00:00:00 8.8 4 Sur 8 Sur 0 -- -- 82